createdAt,value
2022-10-05T00:02:21.435Z,6.90
2022-10-05T00:04:57.433Z,8.07
2022-10-05T00:07:25.153Z,10.93
2022-10-05T00:10:00.375Z,7.32
2022-10-05T00:12:28.433Z,7.15
2022-10-05T00:15:01.219Z,7.65
2022-10-05T00:17:30.550Z,8.50
2022-10-05T00:19:57.357Z,8.05
2022-10-05T00:22:33.577Z,7.95
2022-10-05T00:25:02.511Z,11.60
2022-10-05T00:27:34.671Z,11.95
2022-10-05T00:30:12.005Z,8.30
2022-10-05T00:32:39.232Z,9.27
2022-10-05T00:35:06.492Z,9.85
2022-10-05T00:37:33.669Z,7.82
2022-10-05T00:40:01.018Z,6.85
2022-10-05T00:42:42.938Z,7.47
2022-10-05T00:45:16.713Z,7.53
2022-10-05T00:48:08.093Z,8.30
2022-10-05T00:51:20.469Z,6.63
2022-10-05T00:53:57.855Z,5.53
2022-10-05T00:57:02.989Z,7.90
2022-10-05T00:59:51.181Z,6.57
2022-10-05T01:02:21.228Z,5.60
2022-10-05T01:04:52.027Z,6.53
2022-10-05T01:07:48.646Z,7.40
2022-10-05T01:10:56.285Z,8.37
2022-10-05T01:13:43.752Z,7.07
2022-10-05T01:16:20.183Z,7.47
2022-10-05T01:19:11.268Z,7.90
2022-10-05T01:21:49.314Z,7.70
2022-10-05T01:24:19.528Z,6.77
2022-10-05T01:27:28.145Z,7.22
2022-10-05T01:30:10.827Z,6.70
2022-10-05T01:32:59.088Z,6.93
2022-10-05T01:35:41.368Z,6.00
2022-10-05T01:38:39.912Z,8.13
2022-10-05T01:41:20.513Z,6.05
2022-10-05T01:43:56.505Z,9.88
2022-10-05T01:46:58.665Z,11.20
2022-10-05T01:49:49.134Z,6.75
2022-10-05T01:52:30.969Z,6.13
2022-10-05T01:55:26.771Z,8.18
2022-10-05T01:58:20.463Z,8.02
2022-10-05T02:01:00.314Z,6.85
2022-10-05T02:03:33.693Z,8.45
2022-10-05T02:06:36.020Z,6.17
2022-10-05T02:09:13.675Z,6.35
2022-10-05T02:11:44.015Z,6.22
2022-10-05T02:14:19.567Z,8.45
2022-10-05T02:16:48.964Z,7.78
2022-10-05T02:19:26.220Z,8.13
2022-10-05T02:22:05.328Z,7.28
2022-10-05T02:24:42.872Z,9.65
2022-10-05T02:27:14.330Z,8.18
2022-10-05T02:29:46.396Z,6.68
2022-10-05T02:32:20.140Z,7.07
2022-10-05T02:34:47.262Z,10.23
2022-10-05T02:37:43.066Z,8.98
2022-10-05T02:40:19.539Z,10.10
2022-10-05T02:42:49.470Z,12.55
2022-10-05T02:45:40.040Z,6.97
2022-10-05T02:48:35.892Z,7.80
2022-10-05T02:51:24.451Z,8.23
2022-10-05T02:54:10.049Z,7.13
2022-10-05T02:56:47.909Z,7.75
2022-10-05T02:59:23.450Z,6.57
2022-10-05T03:02:00.856Z,6.68
2022-10-05T03:04:42.568Z,6.82
2022-10-05T03:07:16.953Z,6.82
2022-10-05T03:10:01.399Z,9.25
2022-10-05T03:12:34.463Z,7.13
2022-10-05T03:15:17.024Z,6.22
2022-10-05T03:18:17.766Z,6.50
2022-10-05T03:20:54.503Z,7.60
2022-10-05T03:23:39.777Z,6.70
2022-10-05T03:26:16.015Z,9.20
2022-10-05T03:28:58.537Z,7.40
2022-10-05T03:31:36.849Z,9.43
2022-10-05T03:34:12.331Z,5.82
2022-10-05T03:37:04.019Z,8.05
2022-10-05T03:39:36.994Z,9.73
2022-10-05T03:42:12.972Z,8.10
2022-10-05T03:44:53.777Z,9.80
2022-10-05T03:47:26.289Z,6.28
2022-10-05T03:50:11.862Z,11.43
2022-10-05T03:52:44.506Z,8.80
2022-10-05T03:55:20.775Z,5.82
2022-10-05T03:57:51.366Z,15.25
2022-10-05T04:00:21.510Z,7.70
2022-10-05T04:02:51.114Z,7.97
2022-10-05T04:05:23.053Z,9.77
2022-10-05T04:07:56.578Z,9.15
2022-10-05T04:10:26.236Z,10.23
2022-10-05T04:13:02.412Z,10.00
2022-10-05T04:15:32.596Z,9.70
2022-10-05T04:18:18.265Z,10.00
2022-10-05T04:20:50.021Z,10.23
2022-10-05T04:23:42.926Z,7.63
2022-10-05T04:26:51.030Z,8.60
2022-10-05T04:29:41.983Z,7.32
2022-10-05T04:32:47.796Z,8.20
2022-10-05T04:35:22.914Z,7.68
2022-10-05T04:38:17.650Z,9.23
2022-10-05T04:41:10.991Z,7.45
2022-10-05T04:43:43.710Z,6.07
2022-10-05T04:46:38.986Z,5.50
2022-10-05T04:49:11.754Z,11.75
2022-10-05T04:52:11.130Z,6.93
2022-10-05T04:55:19.770Z,6.78
2022-10-05T04:58:03.739Z,7.22
2022-10-05T05:00:49.814Z,9.77
2022-10-05T05:03:45.092Z,7.82
2022-10-05T05:06:40.571Z,8.15
2022-10-05T05:09:25.420Z,8.20
2022-10-05T05:12:10.815Z,9.52
2022-10-05T05:15:19.576Z,8.47
2022-10-05T05:18:17.753Z,9.50
2022-10-05T05:21:09.263Z,7.82
2022-10-05T05:23:50.591Z,11.45
2022-10-05T05:26:42.409Z,11.10
2022-10-05T05:29:27.913Z,11.03
2022-10-05T05:32:19.312Z,10.27
2022-10-05T05:35:31.169Z,20.13
2022-10-05T05:38:40.501Z,19.63
2022-10-05T05:41:25.858Z,15.27
2022-10-05T05:43:59.935Z,12.83
2022-10-05T05:47:02.551Z,11.02
2022-10-05T05:50:06.729Z,10.70
2022-10-05T05:52:42.418Z,14.88
2022-10-05T05:55:19.581Z,13.35
2022-10-05T05:58:25.190Z,10.37
2022-10-05T06:00:58.704Z,8.68
2022-10-05T06:03:52.181Z,9.77
2022-10-05T06:06:24.993Z,10.40
2022-10-05T06:08:52.649Z,8.52
2022-10-05T06:11:37.107Z,8.77
2022-10-05T06:14:30.989Z,12.85
2022-10-05T06:17:09.589Z,9.85
2022-10-05T06:19:41.180Z,9.13
2022-10-05T06:22:32.592Z,8.40
2022-10-05T06:25:08.506Z,9.30
2022-10-05T06:28:08.652Z,9.90
2022-10-05T06:31:04.466Z,9.45
2022-10-05T06:34:04.133Z,10.10
2022-10-05T06:36:53.231Z,8.50
2022-10-05T06:40:08.564Z,8.50
2022-10-05T06:42:49.634Z,9.90
2022-10-05T06:45:25.757Z,8.60
2022-10-05T06:48:12.579Z,8.75
2022-10-05T06:50:45.996Z,7.25
2022-10-05T06:53:31.235Z,10.43
2022-10-05T06:56:22.133Z,6.70
2022-10-05T06:59:06.955Z,7.80
2022-10-05T07:01:39.524Z,6.72
2022-10-05T07:04:21.912Z,7.28
2022-10-05T07:07:38.699Z,5.80
2022-10-05T07:10:33.191Z,7.28
2022-10-05T07:13:31.026Z,8.05
2022-10-05T07:16:05.308Z,10.13
2022-10-05T07:19:16.672Z,9.18
2022-10-05T07:21:55.393Z,9.77
2022-10-05T07:25:11.579Z,8.65
2022-10-05T07:27:58.712Z,8.85
2022-10-05T07:30:25.895Z,9.20
2022-10-05T07:33:14.309Z,9.02
2022-10-05T07:35:53.735Z,8.33
2022-10-05T07:38:49.671Z,11.38
2022-10-05T07:41:41.579Z,7.85
2022-10-05T07:44:21.219Z,8.27
2022-10-05T07:46:48.948Z,9.60
2022-10-05T07:49:28.290Z,7.17
2022-10-05T07:52:00.713Z,11.27
2022-10-05T07:54:49.050Z,8.20
2022-10-05T07:57:46.410Z,7.32
2022-10-05T08:00:24.590Z,6.30
2022-10-05T08:03:06.968Z,9.90
2022-10-05T08:05:41.351Z,8.25
2022-10-05T08:08:13.233Z,7.72
2022-10-05T08:10:42.691Z,6.95
2022-10-05T08:13:46.236Z,7.47
2022-10-05T08:16:13.494Z,9.53
2022-10-05T08:19:01.096Z,5.57
2022-10-05T08:21:37.898Z,7.05
2022-10-05T08:24:25.458Z,9.55
2022-10-05T08:26:57.335Z,6.45
2022-10-05T08:29:36.695Z,5.47
2022-10-05T08:32:12.331Z,7.60
2022-10-05T08:35:08.869Z,7.65
2022-10-05T08:37:41.813Z,5.82
2022-10-05T08:40:30.670Z,7.00
2022-10-05T08:42:57.903Z,5.50
2022-10-05T08:45:52.388Z,9.63
2022-10-05T08:48:56.990Z,6.07
2022-10-05T08:52:01.432Z,14.65
2022-10-05T08:54:55.732Z,7.38
2022-10-05T08:57:25.596Z,4.70
2022-10-05T08:59:59.077Z,6.30
2022-10-05T09:03:03.289Z,6.20
2022-10-05T09:05:58.488Z,4.85
2022-10-05T09:08:35.634Z,4.32
2022-10-05T09:11:27.365Z,4.00
2022-10-05T09:14:39.744Z,4.70
2022-10-05T09:17:16.166Z,3.78
2022-10-05T09:20:10.341Z,5.60
2022-10-05T09:22:49.318Z,4.45
2022-10-05T09:25:23.773Z,5.80
2022-10-05T09:27:57.569Z,5.35
2022-10-05T09:30:45.627Z,4.68
2022-10-05T09:33:54.849Z,5.40
2022-10-05T09:36:38.909Z,4.68
2022-10-05T09:39:36.197Z,6.57
2022-10-05T09:42:26.090Z,3.92
2022-10-05T09:45:21.317Z,5.65
2022-10-05T09:48:42.511Z,4.47
2022-10-05T09:51:24.574Z,5.38
2022-10-05T09:54:21.133Z,3.73
2022-10-05T09:56:48.658Z,5.28
2022-10-05T09:59:53.527Z,5.07
2022-10-05T10:02:39.785Z,4.25
2022-10-05T10:05:37.375Z,7.60
2022-10-05T10:08:25.770Z,4.63
2022-10-05T10:11:04.827Z,4.85
2022-10-05T10:13:43.899Z,5.18
2022-10-05T10:16:22.911Z,3.90
2022-10-05T10:18:58.856Z,4.72
2022-10-05T10:21:41.796Z,4.80
2022-10-05T10:24:17.577Z,5.10
2022-10-05T10:26:55.574Z,5.68
2022-10-05T10:29:48.995Z,4.10
2022-10-05T10:32:53.331Z,5.25
2022-10-05T10:38:24.431Z,3.63
2022-10-05T10:40:51.230Z,5.45
2022-10-05T10:43:39.743Z,4.78
2022-10-05T10:46:15.592Z,3.35
2022-10-05T10:49:10.730Z,3.77
2022-10-05T10:52:02.025Z,4.65
2022-10-05T10:55:06.213Z,5.20
2022-10-05T10:57:55.942Z,5.18
2022-10-05T11:00:37.313Z,4.28
2022-10-05T11:03:32.292Z,4.40
2022-10-05T11:06:08.611Z,3.97
2022-10-05T11:09:01.429Z,3.55
2022-10-05T11:11:53.714Z,4.97
2022-10-05T11:14:39.220Z,5.63
2022-10-05T11:17:31.010Z,5.37
2022-10-05T11:20:19.771Z,3.85
2022-10-05T11:22:59.195Z,3.63
2022-10-05T11:25:35.061Z,4.30
2022-10-05T11:28:40.443Z,5.07
2022-10-05T11:31:25.561Z,3.77
2022-10-05T11:34:01.448Z,4.43
2022-10-05T11:36:58.947Z,4.15
2022-10-05T11:39:36.398Z,3.53
2022-10-05T11:42:28.815Z,5.22
2022-10-05T11:45:24.101Z,4.07
2022-10-05T11:48:06.045Z,3.40
2022-10-05T11:50:44.912Z,3.22
2022-10-05T11:53:27.288Z,5.60
2022-10-05T11:56:17.207Z,5.63
2022-10-05T11:58:56.054Z,3.17
2022-10-05T12:02:01.174Z,4.15
2022-10-05T12:04:36.675Z,3.42
2022-10-05T12:07:14.935Z,4.32
2022-10-05T12:09:58.115Z,2.95
2022-10-05T12:12:29.554Z,4.37
2022-10-05T12:15:08.769Z,3.05
2022-10-05T12:17:57.036Z,2.88
2022-10-05T12:20:48.579Z,2.95
2022-10-05T12:23:31.291Z,3.67
2022-10-05T12:26:12.031Z,2.70
2022-10-05T12:28:47.173Z,4.35
2022-10-05T12:31:48.105Z,3.72
2022-10-05T12:34:37.090Z,2.97
2022-10-05T12:37:28.593Z,2.72
2022-10-05T12:40:04.701Z,2.67
2022-10-05T12:42:42.001Z,3.67
2022-10-05T12:45:30.884Z,4.85
2022-10-05T12:48:12.680Z,2.42
2022-10-05T12:50:44.245Z,3.80
2022-10-05T12:53:22.886Z,2.80
2022-10-05T12:56:08.812Z,3.47
2022-10-05T12:58:53.885Z,4.00
2022-10-05T13:01:35.314Z,1.98
2022-10-05T13:04:25.495Z,3.95
2022-10-05T13:06:52.551Z,8.60
2022-10-05T13:09:58.047Z,2.65
2022-10-05T13:12:37.215Z,2.63
2022-10-05T13:15:24.925Z,2.10
2022-10-05T13:18:33.784Z,3.53
2022-10-05T13:21:16.850Z,2.57
2022-10-05T13:23:56.488Z,4.25
2022-10-05T13:26:34.954Z,3.22
2022-10-05T13:29:32.693Z,3.67
2022-10-05T13:32:23.268Z,2.85
2022-10-05T13:34:50.096Z,2.70
2022-10-05T13:37:34.754Z,2.88
2022-10-05T13:40:22.050Z,2.95
2022-10-05T13:43:14.575Z,1.85
2022-10-05T13:46:06.495Z,1.83
2022-10-05T13:48:49.991Z,3.63
2022-10-05T13:51:48.906Z,3.03
2022-10-05T13:54:36.381Z,2.55
2022-10-05T13:57:22.867Z,1.92
2022-10-05T13:59:57.348Z,3.58
2022-10-05T14:02:38.509Z,2.87
2022-10-05T14:05:18.211Z,3.20
2022-10-05T14:08:11.352Z,2.30
2022-10-05T14:10:39.373Z,3.35
2022-10-05T14:13:44.451Z,3.45
2022-10-05T14:16:14.140Z,4.13
2022-10-05T14:18:51.984Z,3.10
2022-10-05T14:21:21.972Z,3.65
2022-10-05T14:23:50.331Z,2.92
2022-10-05T14:26:30.934Z,2.75
2022-10-05T14:29:14.157Z,5.83
2022-10-05T14:32:02.002Z,3.15
2022-10-05T14:34:36.900Z,3.15
2022-10-05T14:37:20.714Z,2.90
2022-10-05T14:39:49.979Z,3.17
2022-10-05T14:42:20.093Z,2.60
2022-10-05T14:44:58.871Z,3.50
2022-10-05T14:47:28.156Z,5.05
2022-10-05T14:50:01.653Z,4.85
2022-10-05T14:52:30.796Z,3.67
2022-10-05T14:55:04.949Z,1.73
2022-10-05T14:57:41.753Z,2.47
2022-10-05T15:00:16.074Z,3.90
2022-10-05T15:03:11.616Z,2.92
2022-10-05T15:05:46.050Z,3.28
2022-10-05T15:08:35.172Z,4.30
2022-10-05T15:11:20.604Z,2.47
2022-10-05T15:13:48.208Z,8.70
2022-10-05T15:16:30.111Z,7.00
2022-10-05T15:19:13.580Z,10.85
2022-10-05T15:22:09.744Z,11.87
2022-10-05T15:24:45.230Z,5.88
2022-10-05T15:27:35.929Z,7.45
2022-10-05T15:30:09.133Z,5.57
2022-10-05T15:32:43.502Z,4.63
2022-10-05T15:35:34.808Z,5.03
2022-10-05T15:38:15.869Z,7.28
2022-10-05T15:40:51.849Z,4.35
2022-10-05T15:43:22.710Z,4.28
2022-10-05T15:46:04.371Z,3.70
2022-10-05T15:49:02.252Z,7.40
2022-10-05T15:51:46.952Z,4.10
2022-10-05T15:54:32.554Z,4.30
2022-10-05T15:57:08.532Z,7.05
2022-10-05T15:59:44.631Z,13.07
2022-10-05T16:02:44.417Z,3.90
2022-10-05T16:05:33.156Z,2.88
2022-10-05T16:07:59.901Z,3.25
2022-10-05T16:10:27.336Z,4.78
2022-10-05T16:13:12.336Z,3.83
2022-10-05T16:16:11.390Z,3.37
2022-10-05T16:19:05.656Z,4.30
2022-10-05T16:21:53.453Z,4.57
2022-10-05T16:25:03.476Z,4.55
2022-10-05T16:27:42.208Z,4.57
2022-10-05T16:30:16.669Z,3.20
2022-10-05T16:32:45.355Z,3.35
2022-10-05T16:35:43.094Z,2.97
2022-10-05T16:38:32.173Z,2.67
2022-10-05T16:41:21.015Z,3.90
2022-10-05T16:44:16.031Z,3.47
2022-10-05T16:46:49.804Z,4.57
2022-10-05T16:49:19.386Z,5.93
2022-10-05T16:51:57.252Z,4.03
2022-10-05T16:54:26.945Z,4.43
2022-10-05T16:57:18.695Z,5.33
2022-10-05T17:00:04.156Z,3.30
2022-10-05T17:02:41.051Z,4.47
2022-10-05T17:05:47.094Z,4.68
2022-10-05T17:08:41.662Z,2.90
2022-10-05T17:11:45.535Z,3.47
2022-10-05T17:14:46.619Z,5.85
2022-10-05T17:17:46.755Z,3.92
2022-10-05T17:20:38.998Z,4.40
2022-10-05T17:23:50.212Z,5.13
2022-10-05T17:27:10.898Z,6.63
2022-10-05T17:30:22.045Z,16.15
2022-10-05T17:33:20.318Z,16.00
2022-10-05T17:36:02.298Z,8.40
2022-10-05T17:38:32.313Z,9.63
2022-10-05T17:41:17.546Z,9.40
2022-10-05T17:44:12.153Z,9.55
2022-10-05T17:46:44.226Z,7.72
2022-10-05T17:49:40.154Z,8.10
2022-10-05T17:52:27.870Z,8.88
2022-10-05T17:54:56.952Z,14.47
2022-10-05T17:57:26.657Z,8.85
2022-10-05T17:59:53.314Z,11.85
2022-10-05T18:02:21.630Z,8.60
2022-10-05T18:05:03.765Z,9.95
2022-10-05T18:07:40.529Z,10.10
2022-10-05T18:10:10.177Z,18.52
2022-10-05T18:12:37.099Z,21.00
2022-10-05T18:15:06.639Z,13.68
2022-10-05T18:17:49.448Z,13.23
2022-10-05T18:20:25.498Z,9.30
2022-10-05T18:23:11.570Z,6.85
2022-10-05T18:25:53.590Z,7.35
2022-10-05T18:28:28.250Z,7.70
2022-10-05T18:31:23.651Z,9.82
2022-10-05T18:34:09.273Z,8.50
2022-10-05T18:36:57.969Z,7.00
2022-10-05T18:39:46.864Z,8.45
2022-10-05T18:42:44.516Z,7.75
2022-10-05T18:45:55.054Z,7.38
2022-10-05T18:48:40.034Z,8.03
2022-10-05T18:51:21.705Z,8.63
2022-10-05T18:54:24.971Z,10.00
2022-10-05T18:56:53.231Z,9.82
2022-10-05T18:59:54.852Z,6.97
2022-10-05T19:02:40.900Z,11.73
2022-10-05T19:05:46.934Z,9.43
2022-10-05T19:08:21.218Z,8.07
2022-10-05T19:10:57.579Z,10.18
2022-10-05T19:13:24.625Z,7.40
2022-10-05T19:16:20.349Z,6.10
2022-10-05T19:19:14.612Z,9.65
2022-10-05T19:21:47.668Z,7.25
2022-10-05T19:24:48.368Z,5.55
2022-10-05T19:27:39.652Z,4.18
2022-10-05T19:30:24.049Z,4.83
2022-10-05T19:33:09.560Z,5.63
2022-10-05T19:36:16.097Z,7.35
2022-10-05T19:38:43.410Z,6.75
2022-10-05T19:41:16.215Z,7.45
2022-10-05T19:44:05.753Z,7.07
2022-10-05T19:47:09.849Z,7.32
2022-10-05T19:49:51.313Z,7.38
2022-10-05T19:52:36.449Z,5.53
2022-10-05T19:55:14.916Z,11.00
2022-10-05T19:57:53.383Z,14.13
2022-10-05T20:00:23.070Z,12.88
2022-10-05T20:02:50.641Z,9.60
2022-10-05T20:05:18.489Z,9.10
2022-10-05T20:07:45.774Z,9.65
2022-10-05T20:10:29.860Z,9.80
2022-10-05T20:13:00.534Z,9.73
2022-10-05T20:15:33.390Z,10.60
2022-10-05T20:18:36.510Z,9.65
2022-10-05T20:21:03.410Z,9.82
2022-10-05T20:23:30.496Z,16.73
2022-10-05T20:25:57.474Z,19.45
2022-10-05T20:28:31.836Z,18.38
2022-10-05T20:30:59.747Z,16.50
2022-10-05T20:33:36.014Z,27.20
2022-10-05T20:36:05.131Z,30.20
2022-10-05T20:38:32.380Z,50.30
2022-10-05T20:41:00.594Z,43.20
2022-10-05T20:43:27.806Z,34.42
2022-10-05T20:45:54.810Z,29.42
2022-10-05T20:48:21.809Z,25.23
2022-10-05T20:50:48.874Z,17.08
2022-10-05T20:53:15.871Z,39.70
2022-10-05T20:55:42.855Z,37.40
2022-10-05T20:58:09.924Z,35.63
2022-10-05T21:00:36.968Z,16.03
2022-10-05T21:03:03.969Z,16.20
2022-10-05T21:05:31.115Z,33.60
2022-10-05T21:07:57.896Z,23.90
2022-10-05T21:10:24.771Z,21.77
2022-10-05T21:12:52.154Z,21.90
2022-10-05T21:15:19.012Z,13.90
2022-10-05T21:17:45.889Z,13.35
2022-10-05T21:20:12.978Z,14.65
2022-10-05T21:22:39.695Z,14.85
2022-10-05T21:25:06.985Z,12.10
2022-10-05T21:27:33.940Z,14.13
2022-10-05T21:30:00.914Z,14.50
2022-10-05T21:32:27.676Z,14.63
2022-10-05T21:34:54.692Z,14.07
2022-10-05T21:37:21.549Z,18.10
2022-10-05T21:39:48.691Z,17.13
2022-10-05T21:42:15.742Z,17.27
2022-10-05T21:44:42.575Z,17.45
2022-10-05T21:47:09.743Z,13.98
2022-10-05T21:49:36.853Z,13.93
2022-10-05T21:52:05.035Z,12.90
2022-10-05T21:54:33.192Z,14.27
2022-10-05T21:57:00.472Z,11.98
2022-10-05T21:59:31.454Z,11.05
2022-10-05T22:01:58.329Z,8.70
2022-10-05T22:04:26.132Z,10.27
2022-10-05T22:06:54.550Z,11.25
2022-10-05T22:09:21.390Z,9.60
2022-10-05T22:11:49.007Z,9.02
2022-10-05T22:14:16.350Z,8.57
2022-10-05T22:16:44.763Z,9.32
2022-10-05T22:19:16.651Z,9.13
2022-10-05T22:21:43.716Z,9.75
2022-10-05T22:24:10.534Z,8.75
2022-10-05T22:26:38.194Z,10.07
2022-10-05T22:29:05.171Z,12.93
2022-10-05T22:31:32.254Z,10.07
2022-10-05T22:33:59.410Z,9.15
2022-10-05T22:36:26.913Z,10.43
2022-10-05T22:38:53.738Z,8.30
2022-10-05T22:41:20.756Z,11.75
2022-10-05T22:43:48.231Z,9.30
2022-10-05T22:46:15.442Z,8.48
2022-10-05T22:48:42.456Z,9.25
2022-10-05T22:51:09.551Z,8.83
2022-10-05T22:53:36.353Z,8.48
2022-10-05T22:56:11.665Z,7.57
2022-10-05T22:58:39.577Z,7.78
2022-10-05T23:01:09.031Z,6.85
2022-10-05T23:03:36.272Z,6.17
2022-10-05T23:06:06.811Z,7.63
2022-10-05T23:08:35.673Z,7.55
2022-10-05T23:11:03.898Z,7.35
2022-10-05T23:13:31.094Z,9.32
2022-10-05T23:15:58.230Z,8.23
2022-10-05T23:18:25.824Z,7.57
2022-10-05T23:20:54.790Z,6.93
2022-10-05T23:23:22.286Z,8.25
2022-10-05T23:25:50.490Z,5.70
2022-10-05T23:28:17.616Z,7.37
2022-10-05T23:30:45.122Z,6.05
2022-10-05T23:33:12.071Z,7.53
2022-10-05T23:35:39.270Z,7.50
2022-10-05T23:38:06.191Z,8.52
2022-10-05T23:40:33.273Z,9.63
2022-10-05T23:43:00.426Z,7.20
2022-10-05T23:45:27.253Z,6.80
2022-10-05T23:47:54.260Z,6.72
2022-10-05T23:50:21.154Z,7.93
2022-10-05T23:52:48.047Z,6.00
2022-10-05T23:55:15.485Z,5.07
2022-10-05T23:57:42.567Z,8.80
